createdAt,value
2023-01-17T00:01:59.385Z,6.80
2023-01-17T00:04:45.157Z,6.15
2023-01-17T00:07:30.991Z,7.20
2023-01-17T00:09:59.735Z,7.88
2023-01-17T00:12:31.292Z,4.95
2023-01-17T00:15:00.794Z,7.05
2023-01-17T00:17:29.909Z,5.32
2023-01-17T00:20:15.522Z,8.32
2023-01-17T00:23:01.782Z,10.35
2023-01-17T00:25:50.032Z,6.70
2023-01-17T00:28:18.159Z,5.15
2023-01-17T00:30:45.995Z,4.50
2023-01-17T00:33:12.940Z,9.13
2023-01-17T00:35:39.649Z,3.17
2023-01-17T00:38:08.014Z,6.65
2023-01-17T00:40:35.930Z,3.33
2023-01-17T00:43:21.474Z,5.28
2023-01-17T00:46:07.952Z,6.43
2023-01-17T00:48:54.019Z,10.10
2023-01-17T00:51:40.331Z,7.45
2023-01-17T00:54:26.679Z,5.60
2023-01-17T00:57:12.247Z,8.60
2023-01-17T00:59:57.723Z,8.38
2023-01-17T01:02:45.041Z,3.13
2023-01-17T01:05:31.572Z,6.70
2023-01-17T01:08:17.103Z,6.82
2023-01-17T01:11:03.403Z,5.38
2023-01-17T01:13:49.486Z,5.88
2023-01-17T01:16:35.916Z,3.38
2023-01-17T01:19:23.750Z,3.92
2023-01-17T01:22:08.970Z,2.70
2023-01-17T01:24:54.542Z,1.55
2023-01-17T01:27:39.753Z,1.20
2023-01-17T01:30:26.388Z,3.55
2023-01-17T01:33:11.510Z,3.92
2023-01-17T01:35:41.900Z,2.65
2023-01-17T01:38:09.725Z,1.88
2023-01-17T01:40:43.506Z,6.60
2023-01-17T01:43:13.853Z,4.10
2023-01-17T01:45:41.922Z,4.85
2023-01-17T01:48:30.062Z,5.47
2023-01-17T01:50:59.476Z,2.70
2023-01-17T01:53:27.404Z,3.45
2023-01-17T01:55:56.433Z,6.80
2023-01-17T01:58:26.606Z,5.03
2023-01-17T02:00:54.389Z,6.22
2023-01-17T02:03:24.682Z,3.60
2023-01-17T02:05:53.088Z,4.78
2023-01-17T02:08:24.243Z,2.78
2023-01-17T02:10:52.445Z,4.65
2023-01-17T02:13:21.226Z,3.60
2023-01-17T02:15:58.870Z,3.08
2023-01-17T02:18:36.382Z,2.13
2023-01-17T02:21:19.401Z,3.28
2023-01-17T02:24:24.014Z,4.80
2023-01-17T02:26:55.913Z,5.53
2023-01-17T02:30:05.487Z,3.20
2023-01-17T02:32:46.129Z,0.85
2023-01-17T02:35:20.369Z,2.20
2023-01-17T02:37:57.776Z,2.17
2023-01-17T02:40:29.107Z,5.57
2023-01-17T02:42:59.621Z,3.35
2023-01-17T02:45:27.709Z,3.72
2023-01-17T02:47:56.917Z,1.88
2023-01-17T02:50:26.537Z,4.35
2023-01-17T02:53:09.346Z,2.15
2023-01-17T02:55:44.431Z,3.38
2023-01-17T02:58:24.223Z,5.03
2023-01-17T03:00:59.145Z,1.80
2023-01-17T03:03:32.863Z,2.85
2023-01-17T03:06:03.805Z,2.15
2023-01-17T03:08:31.891Z,3.15
2023-01-17T03:10:59.926Z,3.53
2023-01-17T03:13:27.916Z,6.05
2023-01-17T03:15:55.687Z,1.05
2023-01-17T03:18:23.700Z,4.20
2023-01-17T03:20:52.869Z,2.65
2023-01-17T03:23:20.674Z,5.45
2023-01-17T03:25:48.414Z,1.67
2023-01-17T03:28:16.110Z,12.38
2023-01-17T03:30:44.007Z,3.13
2023-01-17T03:33:11.843Z,5.53
2023-01-17T03:35:39.625Z,3.90
2023-01-17T03:38:08.780Z,6.63
2023-01-17T03:40:36.596Z,8.32
2023-01-17T03:43:04.324Z,3.72
2023-01-17T03:45:32.078Z,5.10
2023-01-17T03:47:59.992Z,3.35
2023-01-17T03:50:27.846Z,8.07
2023-01-17T03:52:55.566Z,3.95
2023-01-17T03:55:24.885Z,6.43
2023-01-17T03:57:52.598Z,6.43
2023-01-17T04:00:20.897Z,9.27
2023-01-17T04:02:48.634Z,6.60
2023-01-17T04:05:17.100Z,6.80
2023-01-17T04:07:44.910Z,3.60
2023-01-17T04:10:12.852Z,2.90
2023-01-17T04:12:42.014Z,2.42
2023-01-17T04:15:10.222Z,9.30
2023-01-17T04:17:38.056Z,6.35
2023-01-17T04:20:06.742Z,6.30
2023-01-17T04:22:34.566Z,5.93
2023-01-17T04:25:02.476Z,3.70
2023-01-17T04:27:31.276Z,2.42
2023-01-17T04:30:00.429Z,9.95
2023-01-17T04:32:29.349Z,7.47
2023-01-17T04:34:57.114Z,4.32
2023-01-17T04:37:24.897Z,7.25
2023-01-17T04:39:52.695Z,8.55
2023-01-17T04:42:20.390Z,10.68
2023-01-17T04:44:48.199Z,5.57
2023-01-17T04:47:17.319Z,7.32
2023-01-17T04:49:45.081Z,9.73
2023-01-17T04:52:12.848Z,8.98
2023-01-17T04:54:40.672Z,4.78
2023-01-17T04:57:08.463Z,4.18
2023-01-17T04:59:36.272Z,5.07
2023-01-17T05:02:04.146Z,5.53
2023-01-17T05:04:33.314Z,11.00
2023-01-17T05:07:01.174Z,8.43
2023-01-17T05:09:29.042Z,6.82
2023-01-17T05:11:56.806Z,5.15
2023-01-17T05:14:26.324Z,7.22
2023-01-17T05:16:54.055Z,12.57
2023-01-17T05:19:21.869Z,6.43
2023-01-17T05:21:51.011Z,9.63
2023-01-17T05:24:19.787Z,2.97
2023-01-17T05:26:54.823Z,6.32
2023-01-17T05:29:22.708Z,9.77
2023-01-17T05:31:50.402Z,7.60
2023-01-17T05:34:18.431Z,10.02
2023-01-17T05:36:46.158Z,5.60
2023-01-17T05:39:15.281Z,5.35
2023-01-17T05:41:43.047Z,14.68
2023-01-17T05:44:12.264Z,8.65
2023-01-17T05:46:40.249Z,8.38
2023-01-17T05:49:08.000Z,4.97
2023-01-17T05:51:37.865Z,8.32
2023-01-17T05:54:05.832Z,4.80
2023-01-17T05:56:34.917Z,8.55
2023-01-17T05:59:02.693Z,8.20
2023-01-17T06:01:30.482Z,5.28
2023-01-17T06:03:58.393Z,10.00
2023-01-17T06:06:26.247Z,6.35
2023-01-17T06:08:54.040Z,9.60
2023-01-17T06:11:21.768Z,5.20
2023-01-17T06:13:50.867Z,13.15
2023-01-17T06:16:18.877Z,6.85
2023-01-17T06:18:46.755Z,8.23
2023-01-17T06:21:14.507Z,9.35
2023-01-17T06:23:42.249Z,11.00
2023-01-17T06:26:10.741Z,8.63
2023-01-17T06:28:38.687Z,13.18
2023-01-17T06:31:09.005Z,10.00
2023-01-17T06:33:36.992Z,5.20
2023-01-17T06:36:05.288Z,7.97
2023-01-17T06:38:33.153Z,6.97
2023-01-17T06:41:05.095Z,5.90
2023-01-17T06:43:34.495Z,15.48
2023-01-17T06:46:02.493Z,8.40
2023-01-17T06:48:31.628Z,11.85
2023-01-17T06:50:59.474Z,14.27
2023-01-17T06:53:27.327Z,4.45
2023-01-17T06:55:57.460Z,7.85
2023-01-17T06:58:25.412Z,12.65
2023-01-17T07:00:53.240Z,15.38
2023-01-17T07:03:23.027Z,9.25
2023-01-17T07:05:53.049Z,11.55
2023-01-17T07:08:21.257Z,16.30
2023-01-17T07:10:49.596Z,24.10
2023-01-17T07:13:20.123Z,16.77
2023-01-17T07:15:47.984Z,10.27
2023-01-17T07:18:20.538Z,12.90
2023-01-17T07:20:49.103Z,12.38
2023-01-17T07:23:18.271Z,10.50
2023-01-17T07:25:52.293Z,21.15
2023-01-17T07:30:47.649Z,11.70
2023-01-17T07:33:15.650Z,11.70
2023-01-17T07:35:43.304Z,8.93
2023-01-17T07:38:15.124Z,14.02
2023-01-17T07:40:44.395Z,8.05
2023-01-17T07:43:14.492Z,13.85
2023-01-17T07:45:43.860Z,8.20
2023-01-17T07:48:11.688Z,8.95
2023-01-17T07:50:40.073Z,13.13
2023-01-17T07:53:07.772Z,13.48
2023-01-17T07:55:35.656Z,8.23
2023-01-17T07:58:04.872Z,13.73
2023-01-17T08:00:32.611Z,17.55
2023-01-17T08:03:01.332Z,14.90
2023-01-17T08:05:30.777Z,8.63
2023-01-17T08:07:58.891Z,9.02
2023-01-17T08:10:26.616Z,13.80
2023-01-17T08:12:55.399Z,13.45
2023-01-17T08:15:26.764Z,20.73
2023-01-17T08:17:54.603Z,15.93
2023-01-17T08:20:22.571Z,11.00
2023-01-17T08:22:53.754Z,13.70
2023-01-17T08:25:22.195Z,14.43
2023-01-17T08:27:49.907Z,12.32
2023-01-17T08:30:18.782Z,11.30
2023-01-17T08:32:48.028Z,12.18
2023-01-17T08:35:15.963Z,10.52
2023-01-17T08:37:43.943Z,18.08
2023-01-17T08:40:13.141Z,11.32
2023-01-17T08:42:41.043Z,19.02
2023-01-17T08:45:10.291Z,15.80
2023-01-17T08:47:39.069Z,11.77
2023-01-17T08:50:08.817Z,13.13
2023-01-17T08:52:37.135Z,14.63
2023-01-17T08:55:06.535Z,15.40
2023-01-17T08:57:34.266Z,14.40
2023-01-17T09:00:02.224Z,9.88
2023-01-17T09:02:30.053Z,12.07
2023-01-17T09:04:58.052Z,17.77
2023-01-17T09:07:27.356Z,10.60
2023-01-17T09:09:55.548Z,18.33
2023-01-17T09:12:23.548Z,11.93
2023-01-17T09:14:51.318Z,19.70
2023-01-17T09:17:19.274Z,14.68
2023-01-17T09:19:48.870Z,16.48
2023-01-17T09:22:16.729Z,20.23
2023-01-17T09:24:45.922Z,18.17
2023-01-17T09:27:13.675Z,18.45
2023-01-17T09:29:41.446Z,19.13
2023-01-17T09:32:09.283Z,21.45
2023-01-17T09:34:37.126Z,12.18
2023-01-17T09:37:04.850Z,11.90
2023-01-17T09:39:32.822Z,18.55
2023-01-17T09:42:04.804Z,14.02
2023-01-17T09:44:39.809Z,17.45
2023-01-17T09:47:15.731Z,14.88
2023-01-17T09:49:45.302Z,17.92
2023-01-17T09:52:15.735Z,16.00
2023-01-17T09:54:45.215Z,19.70
2023-01-17T09:57:22.350Z,21.42
2023-01-17T10:00:03.226Z,15.30
2023-01-17T10:02:45.564Z,16.08
2023-01-17T10:05:37.695Z,12.77
2023-01-17T10:08:13.760Z,15.80
2023-01-17T10:10:48.784Z,16.73
2023-01-17T10:13:35.573Z,12.18
2023-01-17T10:16:14.016Z,14.32
2023-01-17T10:19:03.842Z,13.20
2023-01-17T10:21:41.097Z,12.48
2023-01-17T10:24:20.330Z,13.40
2023-01-17T10:26:51.469Z,20.20
2023-01-17T10:29:21.633Z,15.55
2023-01-17T10:31:55.319Z,13.07
2023-01-17T10:34:26.507Z,14.05
2023-01-17T10:37:00.461Z,13.68
2023-01-17T10:39:30.779Z,23.50
2023-01-17T10:42:01.631Z,17.83
2023-01-17T10:44:34.573Z,17.83
2023-01-17T10:47:08.287Z,16.88
2023-01-17T10:49:38.839Z,18.90
2023-01-17T10:52:16.805Z,17.80
2023-01-17T10:55:05.223Z,16.85
2023-01-17T10:57:39.905Z,10.63
2023-01-17T11:00:24.020Z,15.00
2023-01-17T11:02:53.402Z,10.63
2023-01-17T11:05:25.899Z,13.50
2023-01-17T11:08:02.176Z,12.48
2023-01-17T11:10:39.969Z,15.80
2023-01-17T11:13:19.894Z,13.13
2023-01-17T11:15:51.969Z,13.30
2023-01-17T11:18:21.513Z,17.10
2023-01-17T11:20:49.962Z,12.13
2023-01-17T11:23:20.969Z,18.08
2023-01-17T11:25:50.997Z,15.48
2023-01-17T11:28:23.370Z,14.00
2023-01-17T11:30:57.724Z,14.55
2023-01-17T11:33:47.721Z,10.80
2023-01-17T11:36:18.233Z,13.70
2023-01-17T11:38:57.240Z,14.55
2023-01-17T11:41:25.662Z,10.52
2023-01-17T11:43:55.740Z,9.90
2023-01-17T11:46:25.205Z,12.82
2023-01-17T11:48:56.173Z,12.40
2023-01-17T11:51:27.091Z,13.02
2023-01-17T11:53:56.331Z,12.15
2023-01-17T11:56:33.102Z,11.73
2023-01-17T11:59:20.817Z,11.20
2023-01-17T12:02:01.289Z,10.05
2023-01-17T12:04:31.850Z,7.95
2023-01-17T12:07:21.030Z,10.65
2023-01-17T12:09:54.846Z,13.18
2023-01-17T12:12:47.499Z,9.32
2023-01-17T12:15:26.109Z,10.82
2023-01-17T12:18:24.722Z,7.28
2023-01-17T12:20:59.525Z,8.85
2023-01-17T12:23:37.336Z,12.38
2023-01-17T12:26:19.736Z,7.93
2023-01-17T12:29:05.857Z,12.30
2023-01-17T12:31:35.659Z,7.30
2023-01-17T12:34:13.930Z,4.50
2023-01-17T12:36:47.911Z,6.97
2023-01-17T12:39:18.812Z,6.85
2023-01-17T12:41:55.462Z,8.27
2023-01-17T12:44:38.731Z,4.95
2023-01-17T12:47:07.309Z,7.57
2023-01-17T12:49:41.914Z,6.47
2023-01-17T12:52:15.196Z,4.93
2023-01-17T12:54:46.697Z,6.18
2023-01-17T12:57:16.722Z,5.43
2023-01-17T12:59:48.236Z,3.67
2023-01-17T13:02:21.666Z,6.78
2023-01-17T13:04:58.660Z,5.80
2023-01-17T13:07:32.319Z,8.18
2023-01-17T13:10:04.686Z,5.80
2023-01-17T13:12:33.900Z,7.00
2023-01-17T13:15:03.090Z,4.93
2023-01-17T13:17:35.059Z,5.10
2023-01-17T13:20:09.707Z,4.68
2023-01-17T13:22:39.087Z,3.80
2023-01-17T13:25:17.332Z,4.93
2023-01-17T13:28:03.508Z,5.05
2023-01-17T13:30:43.355Z,7.30
2023-01-17T13:33:30.122Z,5.60
2023-01-17T13:36:18.615Z,7.40
2023-01-17T13:39:01.295Z,2.47
2023-01-17T13:41:38.682Z,7.25
2023-01-17T13:44:25.568Z,8.82
2023-01-17T13:46:58.984Z,5.18
2023-01-17T13:49:40.035Z,4.15
2023-01-17T13:52:10.954Z,4.25
2023-01-17T13:54:46.345Z,4.68
2023-01-17T13:57:40.213Z,4.32
2023-01-17T14:01:00.102Z,8.40
2023-01-17T14:04:06.722Z,3.50
2023-01-17T14:06:40.668Z,4.53
2023-01-17T14:11:53.900Z,7.07
2023-01-17T14:14:56.620Z,8.52
2023-01-17T14:17:49.471Z,4.38
2023-01-17T14:20:38.302Z,3.38
2023-01-17T14:23:32.599Z,5.53
2023-01-17T14:26:14.608Z,10.40
2023-01-17T14:28:42.546Z,5.28
2023-01-17T14:31:11.624Z,2.78
2023-01-17T14:33:42.006Z,17.92
2023-01-17T14:36:19.658Z,9.30
2023-01-17T14:38:47.612Z,6.65
2023-01-17T14:41:20.459Z,9.73
2023-01-17T14:43:49.763Z,5.30
2023-01-17T14:46:22.752Z,6.03
2023-01-17T14:48:51.390Z,5.35
2023-01-17T14:51:22.893Z,4.80
2023-01-17T14:53:55.493Z,7.47
2023-01-17T14:56:25.998Z,4.00
2023-01-17T14:59:12.151Z,5.80
2023-01-17T15:01:41.027Z,3.67
2023-01-17T15:04:22.837Z,7.45
2023-01-17T15:06:50.755Z,4.05
2023-01-17T15:09:20.731Z,4.63
2023-01-17T15:11:51.125Z,3.78
2023-01-17T15:14:21.711Z,4.35
2023-01-17T15:16:52.001Z,2.97
2023-01-17T15:19:21.782Z,4.28
2023-01-17T15:21:51.917Z,3.10
2023-01-17T15:24:21.532Z,8.40
2023-01-17T15:26:51.144Z,6.18
2023-01-17T15:29:24.370Z,7.13
2023-01-17T15:31:54.080Z,12.52
2023-01-17T15:34:28.852Z,70.20
2023-01-17T15:36:59.434Z,45.45
2023-01-17T15:39:30.453Z,31.20
2023-01-17T15:42:02.216Z,18.92
2023-01-17T15:44:46.881Z,17.95
2023-01-17T15:47:30.418Z,9.95
2023-01-17T15:49:58.650Z,7.22
2023-01-17T15:52:26.686Z,10.32
2023-01-17T15:54:55.554Z,7.85
2023-01-17T15:57:31.150Z,10.02
2023-01-17T16:00:01.550Z,6.47
2023-01-17T16:02:43.094Z,6.28
2023-01-17T16:05:41.782Z,7.55
2023-01-17T16:08:38.759Z,8.38
2023-01-17T16:11:07.912Z,11.73
2023-01-17T16:13:42.139Z,5.50
2023-01-17T16:16:18.235Z,8.07
2023-01-17T16:18:47.545Z,9.77
2023-01-17T16:21:21.631Z,11.80
2023-01-17T16:23:49.519Z,12.30
2023-01-17T16:26:17.689Z,6.30
2023-01-17T16:28:47.011Z,17.13
2023-01-17T16:31:14.838Z,7.80
2023-01-17T16:33:43.337Z,7.70
2023-01-17T16:36:16.427Z,5.93
2023-01-17T16:38:45.346Z,11.25
2023-01-17T16:41:13.045Z,11.07
2023-01-17T16:43:40.993Z,8.57
2023-01-17T16:46:11.519Z,14.40
2023-01-17T16:48:39.378Z,8.93
2023-01-17T16:51:08.720Z,10.20
2023-01-17T16:53:37.075Z,15.05
2023-01-17T16:56:11.917Z,11.60
2023-01-17T16:58:39.944Z,17.98
2023-01-17T17:01:11.691Z,14.90
2023-01-17T17:03:39.619Z,14.73
2023-01-17T17:06:07.981Z,19.65
2023-01-17T17:08:36.929Z,11.55
2023-01-17T17:11:14.057Z,10.88
2023-01-17T17:13:43.082Z,11.50
2023-01-17T17:16:17.677Z,8.65
2023-01-17T17:18:47.065Z,17.75
2023-01-17T17:21:15.203Z,10.43
2023-01-17T17:23:43.004Z,10.90
2023-01-17T17:26:10.808Z,11.63
2023-01-17T17:28:38.548Z,20.30
2023-01-17T17:31:10.414Z,13.90
2023-01-17T17:33:39.808Z,8.93
2023-01-17T17:36:10.154Z,11.02
2023-01-17T17:38:38.159Z,12.20
2023-01-17T17:41:10.502Z,10.38
2023-01-17T17:43:40.512Z,11.38
2023-01-17T17:46:09.094Z,14.88
2023-01-17T17:48:37.305Z,12.02
2023-01-17T17:51:07.751Z,8.45
2023-01-17T17:53:35.742Z,8.95
2023-01-17T17:56:05.309Z,19.05
2023-01-17T17:58:34.530Z,14.05
2023-01-17T18:01:06.175Z,11.93
2023-01-17T18:03:34.473Z,11.65
2023-01-17T18:06:03.842Z,12.35
2023-01-17T18:08:33.937Z,9.38
2023-01-17T18:11:02.698Z,14.10
2023-01-17T18:13:31.604Z,15.32
2023-01-17T18:16:07.727Z,12.02
2023-01-17T18:18:36.521Z,16.73
2023-01-17T18:21:12.455Z,14.05
2023-01-17T18:23:43.347Z,12.52
2023-01-17T18:26:17.466Z,13.00
2023-01-17T18:28:45.832Z,10.50
2023-01-17T18:31:13.622Z,12.68
2023-01-17T18:33:42.757Z,12.73
2023-01-17T18:36:12.404Z,9.68
2023-01-17T18:38:43.995Z,9.02
2023-01-17T18:41:14.974Z,9.60
2023-01-17T18:43:43.035Z,12.57
2023-01-17T18:46:12.595Z,10.98
2023-01-17T18:48:41.556Z,12.93
2023-01-17T18:51:10.656Z,15.35
2023-01-17T18:53:41.268Z,14.80
2023-01-17T18:56:10.790Z,12.60
2023-01-17T18:58:39.945Z,10.43
2023-01-17T19:01:10.025Z,17.02
2023-01-17T19:03:38.770Z,11.70
2023-01-17T19:06:08.441Z,13.52
2023-01-17T19:08:36.542Z,13.07
2023-01-17T19:11:06.122Z,15.98
2023-01-17T19:13:34.908Z,11.00
2023-01-17T19:16:03.765Z,15.23
2023-01-17T19:18:32.392Z,13.73
2023-01-17T19:21:05.409Z,17.02
2023-01-17T19:23:33.137Z,11.90
2023-01-17T19:26:00.936Z,19.95
2023-01-17T19:28:30.850Z,10.75
2023-01-17T19:31:06.346Z,14.48
2023-01-17T19:33:35.533Z,15.82
2023-01-17T19:36:04.220Z,15.05
2023-01-17T19:38:32.180Z,13.45
2023-01-17T19:41:08.978Z,13.23
2023-01-17T19:43:38.583Z,12.60
2023-01-17T19:46:08.058Z,13.35
2023-01-17T19:48:36.632Z,14.52
2023-01-17T19:51:05.669Z,9.85
2023-01-17T19:53:33.506Z,11.30
2023-01-17T19:56:01.342Z,14.75
2023-01-17T19:58:29.211Z,20.17
2023-01-17T20:01:07.614Z,14.07
2023-01-17T20:03:35.431Z,14.05
2023-01-17T20:06:03.277Z,18.85
2023-01-17T20:08:31.960Z,15.27
2023-01-17T20:11:03.844Z,18.10
2023-01-17T20:13:31.933Z,18.40
2023-01-17T20:16:02.953Z,26.08
2023-01-17T20:18:32.765Z,25.42
2023-01-17T20:21:03.752Z,23.08
2023-01-17T20:23:35.291Z,21.52
2023-01-17T20:26:04.532Z,21.35
2023-01-17T20:28:33.478Z,22.75
2023-01-17T20:31:06.323Z,23.52
2023-01-17T20:33:36.265Z,22.60
2023-01-17T20:36:10.484Z,21.27
2023-01-17T20:38:44.669Z,24.02
2023-01-17T20:41:14.520Z,20.70
2023-01-17T20:43:42.662Z,21.38
2023-01-17T20:46:11.016Z,23.35
2023-01-17T20:48:44.968Z,24.73
2023-01-17T20:53:42.205Z,27.52
2023-01-17T20:56:11.916Z,26.40
2023-01-17T20:58:39.898Z,24.45
2023-01-17T21:01:08.932Z,35.80
2023-01-17T21:03:37.781Z,27.25
2023-01-17T21:06:08.370Z,23.17
2023-01-17T21:08:37.950Z,27.80
2023-01-17T21:11:08.791Z,29.70
2023-01-17T21:13:36.769Z,27.02
2023-01-17T21:16:05.202Z,26.60
2023-01-17T21:18:36.130Z,30.92
2023-01-17T21:21:05.722Z,28.55
2023-01-17T21:23:34.901Z,34.70
2023-01-17T21:26:03.302Z,30.23
2023-01-17T21:28:33.788Z,24.48
2023-01-17T21:31:02.234Z,24.92
2023-01-17T21:33:30.632Z,26.85
2023-01-17T21:36:07.864Z,23.73
2023-01-17T21:38:37.382Z,18.73
2023-01-17T21:41:05.243Z,25.42
2023-01-17T21:43:32.995Z,18.77
2023-01-17T21:46:03.225Z,18.65
2023-01-17T21:48:31.596Z,19.90
2023-01-17T21:51:05.032Z,17.52
2023-01-17T21:53:37.395Z,26.10
2023-01-17T21:56:26.740Z,21.70
2023-01-17T21:58:56.846Z,17.63
2023-01-17T22:01:26.159Z,21.40
2023-01-17T22:03:56.736Z,19.17
2023-01-17T22:06:25.969Z,22.70
2023-01-17T22:08:54.037Z,22.77
2023-01-17T22:11:25.349Z,20.55
2023-01-17T22:13:53.457Z,19.15
2023-01-17T22:16:23.501Z,19.83
2023-01-17T22:18:51.577Z,18.27
2023-01-17T22:21:20.464Z,15.23
2023-01-17T22:23:49.680Z,18.08
2023-01-17T22:26:17.781Z,18.80
2023-01-17T22:28:47.473Z,18.23
2023-01-17T22:31:17.662Z,13.95
2023-01-17T22:33:46.765Z,16.23
2023-01-17T22:36:16.154Z,19.15
2023-01-17T22:38:45.439Z,20.60
2023-01-17T22:41:16.129Z,18.08
2023-01-17T22:43:48.185Z,20.58
2023-01-17T22:46:18.003Z,16.67
2023-01-17T22:48:46.051Z,22.25
2023-01-17T22:51:15.559Z,18.58
2023-01-17T22:53:44.518Z,16.30
2023-01-17T22:56:14.437Z,17.15
2023-01-17T22:58:44.969Z,17.25
2023-01-17T23:01:16.106Z,17.38
2023-01-17T23:03:44.698Z,18.88
2023-01-17T23:06:14.413Z,16.33
2023-01-17T23:08:44.311Z,25.02
2023-01-17T23:11:42.646Z,26.25
2023-01-17T23:14:14.314Z,27.60
2023-01-17T23:17:04.080Z,24.85
2023-01-17T23:19:34.630Z,30.95
2023-01-17T23:22:19.313Z,23.10
2023-01-17T23:24:50.273Z,29.52
2023-01-17T23:27:37.970Z,27.67
2023-01-17T23:30:07.739Z,27.17
2023-01-17T23:32:36.791Z,27.35
2023-01-17T23:35:04.987Z,25.08
2023-01-17T23:37:50.495Z,25.98
2023-01-17T23:40:19.079Z,25.80
2023-01-17T23:43:04.541Z,24.85
2023-01-17T23:45:35.250Z,24.52
2023-01-17T23:48:05.789Z,30.50
2023-01-17T23:50:34.191Z,25.98
2023-01-17T23:53:06.962Z,24.80
2023-01-17T23:55:36.494Z,32.85
2023-01-17T23:58:04.585Z,25.60
